Time;durP1;ratioP1;P1;durP2;ratioP2;P2;SDS_P1;SDS_P2;PMS_P1;PMS_P2;Temp;Humidity;BMP_temperature;BMP_pressure;BME280_temperature;BME280_humidity;BME280_pressure;Samples;Min_cycle;Max_cycle;Signal;HPM_P1;HPM_P2
2021/05/12 00:05:31;;;;;;;36.33;4.13;;;;;;;16.27;45.96;98692.31;529020;1101;116469;-62
2021/05/12 00:15:36;;;;;;;6.53;3.80;;;;;;;16.08;46.16;98685.42;521394;1097;117348;-61
2021/05/12 00:25:42;;;;;;;4.20;3.10;;;;;;;15.90;46.60;98691.61;526880;1101;116123;-60
2021/05/12 00:35:46;;;;;;;3.67;2.90;;;;;;;15.74;46.69;98668.47;528930;1101;117257;-59
2021/05/12 00:45:51;;;;;;;5.57;2.37;;;;;;;15.65;46.99;98672.88;529213;1102;116480;-60
2021/05/12 00:55:56;;;;;;;5.33;2.60;;;;;;;15.50;47.07;98675.23;529640;1101;115937;-61
2021/05/12 01:06:03;;;;;;;3.90;2.67;;;;;;;15.33;47.50;98673.42;528790;1101;116093;-60
2021/05/12 01:16:07;;;;;;;5.40;2.97;;;;;;;15.17;47.87;98667.01;529298;1104;115798;-59
2021/05/12 01:26:15;;;;;;;4.57;3.57;;;;;;;15.01;48.16;98664.22;528874;1101;117222;-60
2021/05/12 01:36:20;;;;;;;5.57;3.13;;;;;;;14.89;48.47;98660.94;529429;1101;116043;-61
2021/05/12 01:46:25;;;;;;;6.93;3.67;;;;;;;14.77;48.65;98647.09;522485;1096;116212;-59
2021/05/12 01:56:31;;;;;;;9.47;3.90;;;;;;;14.69;48.75;98645.17;528379;1104;116837;-60
2021/05/12 02:06:37;;;;;;;3.63;2.87;;;;;;;14.64;48.91;98632.40;529452;1101;116323;-60
2021/05/12 02:16:42;;;;;;;4.77;2.90;;;;;;;14.56;48.94;98635.78;529511;1101;115805;-59
2021/05/12 02:26:48;;;;;;;5.70;3.33;;;;;;;14.44;48.94;98634.33;528842;1101;116827;-61
2021/05/12 02:36:53;;;;;;;5.43;3.33;;;;;;;14.29;49.27;98620.77;522491;1101;115866;-61
2021/05/12 02:46:59;;;;;;;7.97;3.63;;;;;;;14.23;49.57;98610.81;529753;1101;117170;-61
2021/05/12 02:57:06;;;;;;;4.07;2.90;;;;;;;14.15;49.79;98611.55;529217;1101;115847;-60
2021/05/12 03:07:10;;;;;;;6.93;3.00;;;;;;;14.14;49.93;98610.70;529629;1101;116016;-60
2021/05/12 03:17:15;;;;;;;6.70;3.57;;;;;;;14.18;49.93;98619.16;528757;1101;116384;-60
2021/05/12 03:27:20;;;;;;;6.03;2.77;;;;;;;14.23;49.98;98616.91;529635;1101;116271;-60
2021/05/12 03:37:26;;;;;;;6.57;4.00;;;;;;;14.35;49.85;98606.15;518522;1101;116732;-59
2021/05/12 03:47:31;;;;;;;5.65;2.75;;;;;;;14.51;49.62;98616.08;528787;1101;116364;-60
2021/05/12 03:57:36;;;;;;;7.27;3.70;;;;;;;14.71;49.33;98608.86;521759;1101;115959;-60
2021/05/12 04:07:41;;;;;;;8.03;3.40;;;;;;;15.57;48.99;98605.81;513464;1096;115530;-59
2021/05/12 04:17:46;;;;;;;9.73;4.80;;;;;;;22.72;41.78;98603.13;528238;1101;117114;-60
2021/05/12 04:27:52;;;;;;;7.33;3.40;;;;;;;24.52;35.23;98607.73;529645;1101;116522;-61
2021/05/12 04:37:57;;;;;;;6.60;4.30;;;;;;;19.70;38.05;98611.64;529557;1101;116846;-61
2021/05/12 04:48:03;;;;;;;5.17;2.60;;;;;;;22.76;37.90;98612.39;529514;1101;115833;-60
2021/05/12 04:58:08;;;;;;;5.17;2.77;;;;;;;28.39;30.83;98608.81;529114;1104;116141;-62
2021/05/12 05:08:14;;;;;;;4.00;2.67;;;;;;;32.53;27.45;98605.74;528838;1101;115925;-61
2021/05/12 05:18:19;;;;;;;6.15;3.73;;;;;;;36.07;23.37;98608.60;529233;1104;117051;-63
2021/05/12 05:28:24;;;;;;;4.70;2.30;;;;;;;38.05;21.11;98597.00;529418;1101;118146;-61
2021/05/12 05:38:29;;;;;;;8.35;3.50;;;;;;;39.46;18.88;98602.84;528768;1101;115969;-64
2021/05/12 05:48:34;;;;;;;6.53;3.00;;;;;;;40.69;17.53;98602.36;529454;1101;116093;-64
2021/05/12 05:58:39;;;;;;;5.55;3.05;;;;;;;42.46;16.10;98599.81;529401;1101;116354;-63
2021/05/12 06:08:44;;;;;;;6.58;2.90;;;;;;;44.80;15.10;98596.82;528653;1101;117833;-63
2021/05/12 06:18:51;;;;;;;3.10;2.70;;;;;;;44.98;13.68;98604.85;529364;1101;115834;-62
2021/05/12 06:28:57;;;;;;;5.80;3.80;;;;;;;46.21;13.39;98605.09;529467;1101;115900;-63
2021/05/12 06:39:01;;;;;;;3.70;3.28;;;;;;;47.03;12.54;98603.59;528474;1102;117498;-63
2021/05/12 06:49:06;;;;;;;7.15;4.65;;;;;;;47.05;12.03;98604.02;529538;1101;115877;-60
2021/05/12 06:59:11;;;;;;;7.70;3.95;;;;;;;48.14;11.62;98598.27;528475;1104;117127;-61
2021/05/12 07:09:16;;;;;;;5.20;3.43;;;;;;;48.62;11.07;98603.26;529610;1101;116520;-64
2021/05/12 07:19:26;;;;;;;4.28;3.88;;;;;;;48.27;10.69;98592.45;525990;1104;115389;-62
2021/05/12 07:29:38;;;;;;;7.35;3.80;;;;;;;49.09;10.53;98586.25;527018;1101;117890;-63
2021/05/12 07:39:48;;;;;;;5.30;4.90;;;;;;;50.43;9.80;98580.79;529149;1101;115769;-61
2021/05/12 07:50:13;;;;;;;5.58;5.08;;;;;;;50.72;10.04;98583.70;529188;1101;115850;-61
2021/05/12 08:00:25;;;;;;;3.28;2.68;;;;;;;46.97;10.24;98575.33;524873;1101;115432;-65
2021/05/12 08:10:30;;;;;;;6.78;2.88;;;;;;;36.08;15.40;98572.02;529397;1101;116453;-63
2021/05/12 08:20:35;;;;;;;5.13;3.10;;;;;;;31.56;19.25;98558.86;528490;1102;117320;-66
2021/05/12 08:30:52;;;;;;;7.30;2.90;;;;;;;29.59;21.98;98563.06;529352;1101;115960;-63
2021/05/12 08:41:02;;;;;;;5.35;3.00;;;;;;;28.03;23.80;98564.89;529250;1102;116074;-66
2021/05/12 08:51:09;;;;;;;6.35;2.85;;;;;;;27.03;25.56;98568.30;529147;1104;115614;-64
2021/05/12 09:01:14;;;;;;;5.65;3.15;;;;;;;26.71;26.34;98553.21;529164;1104;116194;-67
2021/05/12 09:11:19;;;;;;;5.37;3.07;;;;;;;26.72;27.23;98552.16;528450;1104;116238;-67
2021/05/12 09:21:40;;;;;;;4.57;2.30;;;;;;;26.82;27.62;98540.81;529152;1101;116736;-67
2021/05/12 09:31:45;;;;;;;4.63;2.40;;;;;;;27.05;27.33;98538.45;529233;1102;116311;-67
2021/05/12 09:41:51;;;;;;;6.67;2.23;;;;;;;27.00;28.07;98542.63;525941;1104;115826;-62
2021/05/12 09:51:58;;;;;;;4.40;2.00;;;;;;;27.11;28.45;98522.17;529077;1104;117788;-66
2021/05/12 10:02:04;;;;;;;4.27;1.97;;;;;;;27.00;28.56;98513.01;528771;1104;116207;-59
2021/05/12 10:12:16;;;;;;;7.03;2.70;;;;;;;26.72;28.27;98516.33;529033;1102;177909;-66
2021/05/12 10:22:21;;;;;;;7.10;2.00;;;;;;;26.21;29.17;98510.45;529234;1104;116421;-63
2021/05/12 10:32:30;;;;;;;3.83;2.47;;;;;;;26.04;30.10;98519.09;528507;1101;116928;-65
2021/05/12 10:42:56;;;;;;;2.20;2.00;;;;;;;25.87;30.05;98505.45;523284;1097;116323;-57
2021/05/12 10:53:19;;;;;;;4.47;2.53;;;;;;;25.66;30.09;98504.84;519749;1101;116462;-59
2021/05/12 11:03:25;;;;;;;5.97;2.93;;;;;;;25.61;30.49;98499.33;521620;1102;117297;-60
2021/05/12 11:13:32;;;;;;;3.50;2.10;;;;;;;25.75;30.91;98489.27;529181;1101;116453;-65
2021/05/12 11:23:37;;;;;;;6.27;2.80;;;;;;;25.72;30.87;98485.15;528465;1101;116176;-67
2021/05/12 11:33:48;;;;;;;4.70;2.40;;;;;;;25.74;31.04;98485.73;529212;1101;116205;-66
2021/05/12 11:43:56;;;;;;;3.60;2.23;;;;;;;25.76;30.84;98482.00;511388;1102;20002551;-65
2021/05/12 11:54:03;;;;;;;4.00;3.07;;;;;;;25.66;30.78;98469.91;522032;1102;116612;-64
2021/05/12 12:04:20;;;;;;;4.53;2.20;;;;;;;25.69;31.07;98465.95;525566;1104;116476;-63
2021/05/12 12:14:30;;;;;;;8.45;2.30;;;;;;;25.96;31.07;98447.63;528212;1101;116194;-63
2021/05/12 12:24:36;;;;;;;9.47;2.57;;;;;;;26.05;30.57;98447.32;516803;1097;10001411;-64
2021/05/12 12:34:42;;;;;;;4.63;2.13;;;;;;;26.02;29.81;98445.90;515781;1102;116475;-65
2021/05/12 12:44:48;;;;;;;3.73;1.93;;;;;;;25.95;29.74;98437.92;528396;1104;117471;-65
2021/05/12 12:55:00;;;;;;;2.83;2.17;;;;;;;25.95;29.16;98435.23;520289;1102;10112859;-64
2021/05/12 13:05:14;;;;;;;4.73;1.80;;;;;;;25.96;28.41;98438.73;528421;1104;118164;-62
2021/05/12 13:15:25;;;;;;;2.10;1.50;;;;;;;26.02;27.84;98435.14;529215;1101;115760;-64
2021/05/12 13:25:30;;;;;;;3.20;1.83;;;;;;;26.06;27.71;98428.25;529114;1104;116580;-66
2021/05/12 13:35:35;;;;;;;4.40;1.27;;;;;;;26.05;27.38;98412.36;528440;1104;116325;-64
2021/05/12 13:45:40;;;;;;;1.83;1.73;;;;;;;26.18;27.33;98409.47;529150;1102;117113;-60
2021/05/12 13:55:55;;;;;;;6.23;2.27;;;;;;;26.24;26.98;98394.31;529156;1104;115758;-63
2021/05/12 14:05:59;;;;;;;4.03;2.40;;;;;;;26.18;26.95;98373.67;528536;1101;116274;-63
2021/05/12 14:16:16;;;;;;;3.97;1.93;;;;;;;26.06;26.95;98390.59;525413;1101;116128;-65
2021/05/12 14:26:21;;;;;;;5.47;1.93;;;;;;;26.11;27.02;98385.36;528431;1101;116929;-66
2021/05/12 14:36:27;;;;;;;2.73;1.57;;;;;;;26.11;26.79;98369.23;529252;1101;116331;-67
2021/05/12 14:46:33;;;;;;;6.90;1.57;;;;;;;26.12;26.24;98352.04;529135;1104;116203;-66
2021/05/12 14:56:46;;;;;;;4.90;1.77;;;;;;;26.16;26.81;98341.64;528507;1103;116390;-66
2021/05/12 15:06:52;;;;;;;4.10;1.30;;;;;;;26.19;26.48;98340.37;529214;1104;116679;-66
2021/05/12 15:16:57;;;;;;;5.37;1.03;;;;;;;26.09;26.31;98322.92;529187;1104;116397;-67
2021/05/12 15:27:02;;;;;;;7.80;1.88;;;;;;;26.10;27.09;98318.34;528467;1101;116315;-65
2021/05/12 15:37:07;;;;;;;3.83;1.33;;;;;;;25.99;27.68;98311.91;529251;1101;116012;-66
2021/05/12 15:47:13;;;;;;;3.10;1.40;;;;;;;25.99;28.16;98311.91;525815;1101;115831;-66
2021/05/12 15:57:18;;;;;;;5.70;1.40;;;;;;;25.81;28.04;98315.48;529243;1104;115911;-66
2021/05/12 16:07:25;;;;;;;4.20;1.20;;;;;;;25.63;28.35;98305.62;529248;1101;116256;-65
2021/05/12 16:17:30;;;;;;;3.47;1.60;;;;;;;25.55;29.02;98304.05;528526;1101;116473;-66
2021/05/12 16:27:36;;;;;;;10.80;1.97;;;;;;;25.40;29.04;98313.31;529217;1104;116337;-65
2021/05/12 16:37:41;;;;;;;5.93;1.97;;;;;;;25.13;29.59;98305.59;524559;1104;116817;-64
2021/05/12 16:47:46;;;;;;;4.63;2.00;;;;;;;24.95;29.60;98316.33;512032;1104;116651;-65
2021/05/12 16:57:51;;;;;;;4.07;1.97;;;;;;;26.58;28.63;98309.28;529291;1102;117978;-65
2021/05/12 17:08:04;;;;;;;4.93;2.00;;;;;;;25.11;29.78;98320.28;529283;1101;115949;-65
2021/05/12 17:18:09;;;;;;;7.40;2.20;;;;;;;24.50;30.56;98320.88;529322;1101;115853;-65
2021/05/12 17:28:14;;;;;;;8.20;2.53;;;;;;;24.93;30.77;98319.23;529252;1101;117342;-66
2021/05/12 17:38:19;;;;;;;4.07;2.97;;;;;;;23.97;32.02;98330.14;528520;1104;116674;-64
2021/05/12 17:48:24;;;;;;;7.83;3.50;;;;;;;23.32;33.46;98335.45;529236;1104;116358;-65
2021/05/12 17:58:49;;;;;;;9.15;4.10;;;;;;;22.83;34.76;98342.13;529183;1103;116535;-62
2021/05/12 18:08:54;;;;;;;6.27;3.17;;;;;;;22.35;35.69;98346.67;509365;1096;20001958;-62
2021/05/12 18:19:00;;;;;;;5.30;3.73;;;;;;;21.96;36.72;98349.11;511001;1097;116606;-63
2021/05/12 18:29:05;;;;;;;5.10;3.33;;;;;;;21.58;36.91;98361.09;521363;1104;116489;-62
2021/05/12 18:39:15;;;;;;;8.77;4.57;;;;;;;21.23;38.35;98371.83;516745;1102;116023;-64
2021/05/12 18:49:20;;;;;;;4.50;4.10;;;;;;;20.95;38.74;98367.38;529130;1101;116244;-64
2021/05/12 18:59:25;;;;;;;9.10;4.70;;;;;;;20.69;39.38;98371.50;528048;1101;116418;-63
2021/05/12 19:18:25;;;;;;;11.77;4.93;;;;;;;20.27;41.05;98398.02;521148;1090;64361;-62
2021/05/12 19:28:37;;;;;;;8.25;5.10;;;;;;;20.09;41.56;98387.81;528882;1101;115723;-66
2021/05/12 19:49:06;;;;;;;10.60;6.97;;;;;;;19.61;43.23;98397.06;530238;1101;115481;-63
2021/05/12 19:59:11;;;;;;;8.77;6.00;;;;;;;19.37;44.23;98411.52;518145;1096;115814;-61
2021/05/12 20:09:23;;;;;;;7.27;5.30;;;;;;;19.14;45.75;98415.09;512831;1101;10001809;-64
2021/05/12 20:19:28;;;;;;;8.10;5.60;;;;;;;18.88;46.10;98405.70;530373;1101;116487;-64
2021/05/12 20:29:33;;;;;;;7.77;5.80;;;;;;;18.70;46.75;98406.00;529764;1101;115349;-63
2021/05/12 20:39:39;;;;;;;8.00;4.50;;;;;;;18.41;46.92;98404.94;530536;1101;115059;-65
2021/05/12 20:49:44;;;;;;;7.57;3.97;;;;;;;18.15;47.04;98398.96;530539;1101;115172;-65
2021/05/12 20:59:49;;;;;;;6.10;3.93;;;;;;;17.92;46.84;98398.93;527081;1101;115598;-63
2021/05/12 21:09:54;;;;;;;4.20;3.73;;;;;;;17.70;46.45;98395.22;518185;1101;116450;-63
2021/05/12 21:20:00;;;;;;;5.20;3.97;;;;;;;17.43;46.26;98400.84;530482;1101;115518;-63
2021/05/12 21:30:08;;;;;;;7.67;3.70;;;;;;;17.30;46.01;98388.11;530451;1101;116628;-63
2021/05/12 21:40:13;;;;;;;10.10;5.08;;;;;;;17.18;45.57;98389.48;530468;1101;115881;-64
2021/05/12 21:50:19;;;;;;;4.50;2.70;;;;;;;16.95;45.26;98382.22;527586;1101;167723;-64
2021/05/12 22:00:38;;;;;;;4.65;2.75;;;;;;;16.77;45.12;98369.16;530475;1101;117161;-63
2021/05/12 22:31:37;;;;;;;4.23;2.77;;;;;;;16.20;44.69;98357.61;529910;1101;116883;-63
2021/05/12 22:41:42;;;;;;;2.80;2.13;;;;;;;16.00;44.83;98331.44;529689;1101;116343;-63
2021/05/12 22:51:47;;;;;;;5.60;3.07;;;;;;;15.88;44.75;98320.34;530587;1101;117441;-63
2021/05/12 23:01:52;;;;;;;2.33;2.13;;;;;;;15.72;44.87;98313.20;530608;1101;115172;-64
2021/05/12 23:11:58;;;;;;;3.30;2.80;;;;;;;15.55;44.98;98307.05;529841;1100;116726;-65
2021/05/12 23:22:02;;;;;;;3.27;1.70;;;;;;;15.40;44.72;98307.65;528129;1101;116564;-64
2021/05/12 23:32:08;;;;;;;4.87;2.27;;;;;;;15.19;44.64;98313.38;515238;1101;116152;-63
2021/05/12 23:42:17;;;;;;;2.73;2.53;;;;;;;15.04;44.65;98318.43;525251;1101;115795;-63
2021/05/12 23:52:22;;;;;;;5.23;2.67;;;;;;;14.87;44.69;98314.07;530521;1101;115927;-64
